Time;durP1;ratioP1;P1;durP2;ratioP2;P2;SDS_P1;SDS_P2;PMS_P1;PMS_P2;Temp;Humidity;BMP_temperature;BMP_pressure;BME280_temperature;BME280_humidity;BME280_pressure;Samples;Min_cycle;Max_cycle;Signal;HPM_P1;HPM_P2
2021/12/31 00:00:58;;;;;;;3.15;1.90;;;;;;;12.36;78.27;99465.63;5085043;28;20068;-69
2021/12/31 00:03:32;;;;;;;3.40;2.38;;;;;;;12.34;78.38;99451.56;5086535;28;20064;-69
2021/12/31 00:06:01;;;;;;;3.15;2.03;;;;;;;12.31;78.44;99459.72;5086643;28;20079;-69
2021/12/31 00:08:31;;;;;;;3.85;2.00;;;;;;;12.30;78.64;99446.53;5086370;28;20060;-69
2021/12/31 00:11:02;;;;;;;3.70;2.00;;;;;;;12.31;78.52;99456.22;5086344;28;20072;-69
2021/12/31 00:13:32;;;;;;;3.20;2.20;;;;;;;12.28;78.36;99465.22;5086462;28;20331;-69
2021/12/31 00:16:02;;;;;;;4.15;2.10;;;;;;;12.28;78.48;99456.41;5086213;28;20241;-69
2021/12/31 00:18:34;;;;;;;3.38;2.35;;;;;;;12.10;78.16;99426.44;5086450;28;20067;-69
2021/12/31 00:21:03;;;;;;;3.58;1.88;;;;;;;12.28;78.27;99461.72;5085880;28;20076;-69
2021/12/31 00:23:33;;;;;;;2.67;1.77;;;;;;;12.04;77.97;99429.47;5086382;28;20064;-69
2021/12/31 00:26:03;;;;;;;3.00;2.00;;;;;;;12.23;78.05;99467.31;5086084;28;20071;-69
2021/12/31 00:28:34;;;;;;;3.85;1.75;;;;;;;12.22;78.15;99467.41;5086034;28;20331;-69
2021/12/31 00:31:04;;;;;;;2.65;1.77;;;;;;;12.17;77.88;99471.19;5085999;28;20071;-70
2021/12/31 00:33:35;;;;;;;3.38;1.60;;;;;;;8.39;77.64;98840.28;5085880;28;20071;-69
2021/12/31 00:36:04;;;;;;;2.92;1.70;;;;;;;12.16;77.87;99490.72;5086123;28;20309;-69
2021/12/31 00:38:35;;;;;;;2.42;1.70;;;;;;;12.16;77.95;99488.06;5085863;28;20056;-70
2021/12/31 00:41:05;;;;;;;2.80;1.98;;;;;;;12.15;77.79;99481.00;5085799;28;20060;-69
2021/12/31 00:43:35;;;;;;;2.25;1.38;;;;;;;12.14;77.52;99483.75;5085787;28;20075;-69
2021/12/31 00:46:05;;;;;;;3.25;1.95;;;;;;;12.14;77.67;99481.97;5085965;28;20246;-69
2021/12/31 00:48:37;;;;;;;2.22;1.42;;;;;;;12.13;77.29;99496.19;5085625;28;20056;-69
2021/12/31 00:51:06;;;;;;;2.70;1.60;;;;;;;12.09;77.57;99499.97;5085911;28;20090;-69
2021/12/31 00:53:36;;;;;;;3.88;1.73;;;;;;;12.08;77.31;99497.41;5085529;28;20067;-69
2021/12/31 00:56:06;;;;;;;2.35;1.45;;;;;;;12.06;77.40;99500.16;5085566;28;20301;-69
2021/12/31 00:58:37;;;;;;;2.28;1.55;;;;;;;12.08;77.34;99505.38;5085557;28;20071;-69
2021/12/31 01:01:07;;;;;;;2.35;1.50;;;;;;;11.84;76.87;99473.97;5085495;28;20060;-68
2021/12/31 01:03:39;;;;;;;2.45;1.65;;;;;;;12.04;77.01;99487.91;5085462;28;20063;-69
2021/12/31 01:06:08;;;;;;;2.15;1.50;;;;;;;11.88;76.65;99461.38;5085329;28;20098;-70
2021/12/31 01:08:38;;;;;;;2.72;1.67;;;;;;;11.97;76.70;99490.03;5085032;28;20060;-69
2021/12/31 01:11:08;;;;;;;3.28;1.83;;;;;;;11.43;76.83;99401.19;5085674;28;20056;-69
2021/12/31 01:13:51;;;;;;;2.17;1.30;;;;;;;11.99;76.90;99504.09;5084916;28;20064;-69
2021/12/31 01:16:34;;;;;;;2.42;1.38;;;;;;;11.98;77.01;99504.16;5085241;28;20060;-68
2021/12/31 01:21:59;;;;;;;2.67;1.48;;;;;;;11.91;76.97;99511.63;5085063;28;20067;-69
2021/12/31 01:24:34;;;;;;;2.75;1.80;;;;;;;11.92;76.90;99499.22;5085231;28;20044;-69
2021/12/31 01:27:07;;;;;;;3.03;2.28;;;;;;;11.90;77.04;99512.59;5085753;28;20067;-68
2021/12/31 01:29:40;;;;;;;2.83;1.67;;;;;;;11.87;76.56;99504.78;5085485;28;20173;-68
2021/12/31 01:32:14;;;;;;;4.07;1.95;;;;;;;11.87;76.67;99534.00;5085158;28;20229;-68
2021/12/31 01:34:48;;;;;;;2.40;1.48;;;;;;;11.86;76.70;99505.75;5085150;28;20157;-68
2021/12/31 01:37:22;;;;;;;2.75;1.58;;;;;;;11.84;76.92;99512.94;5085482;28;20076;-69
2021/12/31 01:39:55;;;;;;;2.85;1.80;;;;;;;11.79;76.93;99518.53;5085132;28;20060;-69
2021/12/31 01:42:32;;;;;;;3.47;2.20;;;;;;;11.78;76.79;99522.13;5085129;28;20067;-69
2021/12/31 01:45:10;;;;;;;2.92;1.77;;;;;;;11.74;76.90;99522.38;5085113;28;20064;-68
2021/12/31 01:47:56;;;;;;;2.63;1.75;;;;;;;11.72;76.64;99518.97;5085350;28;20224;-68
2021/12/31 01:50:31;;;;;;;2.67;1.85;;;;;;;11.71;76.38;99503.97;5085350;28;20174;-69
2021/12/31 01:53:05;;;;;;;2.97;1.75;;;;;;;11.71;76.69;99510.13;5085230;28;20060;-68
2021/12/31 01:55:38;;;;;;;3.22;1.90;;;;;;;11.72;76.74;99517.16;5085009;28;20060;-69
2021/12/31 01:58:13;;;;;;;2.45;1.38;;;;;;;11.70;76.62;99508.44;5084956;28;20075;-69
2021/12/31 02:00:46;;;;;;;2.20;1.40;;;;;;;11.69;76.71;99524.44;5084992;28;20059;-68
2021/12/31 02:03:19;;;;;;;2.90;1.70;;;;;;;11.67;76.45;99513.06;5085219;28;20071;-69
2021/12/31 02:05:54;;;;;;;4.72;1.60;;;;;;;11.67;76.29;99516.56;5084880;28;20078;-68
2021/12/31 02:08:28;;;;;;;3.10;1.45;;;;;;;11.65;76.40;99522.91;5084848;28;20070;-68
2021/12/31 02:11:01;;;;;;;2.45;1.60;;;;;;;11.63;76.36;99530.09;5084878;28;20068;-68
2021/12/31 02:13:36;;;;;;;2.30;1.25;;;;;;;11.62;76.63;99515.13;5084763;28;20314;-69
2021/12/31 02:16:10;;;;;;;1.83;1.45;;;;;;;11.57;76.42;99516.22;5084826;28;20067;-68
2021/12/31 02:18:43;;;;;;;3.70;1.60;;;;;;;11.57;76.60;99520.69;5084718;28;20067;-68
2021/12/31 02:21:17;;;;;;;1.83;1.23;;;;;;;11.57;76.41;99516.22;5084591;28;20072;-68
2021/12/31 02:23:47;;;;;;;2.00;1.42;;;;;;;11.54;76.47;99518.19;5084876;28;20087;-68
2021/12/31 02:26:15;;;;;;;2.65;1.60;;;;;;;11.52;76.38;99518.28;5088482;28;20288;-69
2021/12/31 02:28:46;;;;;;;2.90;1.40;;;;;;;11.52;76.62;99515.63;5088349;28;20056;-69
2021/12/31 02:31:16;;;;;;;3.85;1.40;;;;;;;11.53;76.38;99513.84;5088224;28;20060;-69
2021/12/31 02:33:46;;;;;;;2.10;1.20;;;;;;;11.52;76.43;99515.63;5088164;28;20064;-68
2021/12/31 02:36:19;;;;;;;2.33;1.40;;;;;;;11.54;76.15;99515.56;5088258;28;20316;-68
2021/12/31 02:38:52;;;;;;;2.45;1.58;;;;;;;11.51;76.35;99513.94;5088484;28;20060;-69
2021/12/31 02:41:25;;;;;;;1.88;1.30;;;;;;;11.48;76.09;99522.06;5088148;28;20300;-69
2021/12/31 02:43:59;;;;;;;2.72;1.67;;;;;;;11.48;75.88;99516.75;5088369;28;20064;-68
2021/12/31 02:46:33;;;;;;;2.07;1.30;;;;;;;11.42;76.02;99497.66;5087350;28;20060;-68
2021/12/31 02:49:06;;;;;;;9.02;1.73;;;;;;;11.51;75.75;99503.31;5087999;28;20056;-68
2021/12/31 02:51:40;;;;;;;2.10;1.35;;;;;;;11.49;75.42;99510.50;5088469;28;20075;-68
2021/12/31 02:54:14;;;;;;;1.70;1.40;;;;;;;11.50;75.53;99511.34;5088136;28;20060;-68
2021/12/31 02:56:47;;;;;;;2.40;1.53;;;;;;;11.49;75.44;99505.19;5088216;28;20071;-68
2021/12/31 02:59:20;;;;;;;2.22;1.75;;;;;;;11.46;75.28;99510.66;5087825;28;20281;-69
2021/12/31 03:01:55;;;;;;;1.75;1.20;;;;;;;11.46;75.26;99518.63;5087761;28;20304;-69
2021/12/31 03:04:29;;;;;;;2.25;1.40;;;;;;;11.43;75.74;99516.16;5087777;28;20060;-69
2021/12/31 03:07:05;;;;;;;2.10;1.35;;;;;;;11.42;75.40;99527.72;5088247;28;20260;-68
2021/12/31 03:09:45;;;;;;;1.85;1.15;;;;;;;11.43;75.81;99515.28;5087616;28;20297;-69
2021/12/31 03:12:18;;;;;;;1.70;1.23;;;;;;;11.43;75.83;99515.28;5087544;28;20056;-69
2021/12/31 03:14:53;;;;;;;2.05;1.35;;;;;;;11.41;76.00;99512.72;5087732;28;20071;-69
2021/12/31 03:17:27;;;;;;;3.78;1.55;;;;;;;11.38;75.80;99512.91;5086815;28;20060;-68
2021/12/31 03:20:10;;;;;;;3.07;1.50;;;;;;;10.53;75.88;99407.06;5087323;28;20324;-69
2021/12/31 03:22:44;;;;;;;2.05;1.25;;;;;;;11.39;76.14;99527.03;5087916;28;20375;-68
2021/12/31 03:25:18;;;;;;;1.95;1.27;;;;;;;11.38;76.08;99522.66;5087312;28;20060;-68
2021/12/31 03:27:51;;;;;;;1.90;1.10;;;;;;;11.37;76.03;99526.25;5087339;28;20060;-69
2021/12/31 03:30:24;;;;;;;2.05;1.30;;;;;;;11.34;75.99;99518.47;5087251;28;20060;-69
2021/12/31 03:32:57;;;;;;;1.90;1.20;;;;;;;11.37;76.07;99523.59;5087173;28;20064;-68
2021/12/31 03:35:31;;;;;;;2.38;1.33;;;;;;;11.37;75.88;99520.94;5086884;28;20056;-68
2021/12/31 03:38:05;;;;;;;2.92;1.40;;;;;;;11.14;76.12;99491.25;5087137;28;20082;-69
2021/12/31 03:40:38;;;;;;;2.42;1.30;;;;;;;11.32;76.11;99528.31;5087099;28;20059;-69
2021/12/31 03:43:11;;;;;;;2.55;1.60;;;;;;;11.12;76.06;99487.81;5087005;28;20059;-68
2021/12/31 03:45:46;;;;;;;1.67;1.20;;;;;;;11.32;76.02;99526.50;5087220;28;20064;-69
2021/12/31 03:48:19;;;;;;;2.10;1.42;;;;;;;11.32;76.31;99538.91;5086928;28;20067;-68
2021/12/31 03:50:53;;;;;;;2.05;1.35;;;;;;;11.29;76.33;99537.28;5086850;28;20269;-68
2021/12/31 03:53:27;;;;;;;2.13;1.40;;;;;;;11.30;76.36;99528.38;5086793;28;20056;-68
2021/12/31 03:56:00;;;;;;;2.10;1.33;;;;;;;11.29;76.44;99532.00;5086670;28;20076;-69
2021/12/31 03:58:33;;;;;;;1.90;1.40;;;;;;;11.29;76.42;99533.78;5086980;28;20056;-69
2021/12/31 04:01:06;;;;;;;1.80;1.20;;;;;;;11.28;76.08;99530.28;5086965;28;20070;-69
2021/12/31 04:03:39;;;;;;;2.13;1.40;;;;;;;11.31;76.30;99521.28;5086585;28;20067;-69
2021/12/31 04:06:13;;;;;;;2.60;1.40;;;;;;;11.30;76.17;99531.03;5086551;28;20064;-69
2021/12/31 04:08:47;;;;;;;2.28;1.52;;;;;;;11.10;75.74;99495.00;5086473;28;20056;-69
2021/12/31 04:11:16;;;;;;;2.75;1.60;;;;;;;11.32;75.80;99536.28;5086695;28;20076;-69
2021/12/31 04:13:46;;;;;;;2.42;1.52;;;;;;;10.79;75.93;99444.59;5086313;28;20064;-69
2021/12/31 04:16:16;;;;;;;2.30;1.50;;;;;;;11.30;75.82;99533.69;5086181;28;20248;-69
2021/12/31 04:18:47;;;;;;;2.00;1.33;;;;;;;11.31;75.87;99534.56;5086213;28;20067;-69
2021/12/31 04:21:20;;;;;;;2.20;1.40;;;;;;;11.31;75.63;99542.50;5085944;28;20076;-69
2021/12/31 04:24:05;;;;;;;2.15;1.33;;;;;;;11.33;75.35;99540.63;5086189;28;20075;-69
2021/12/31 04:26:38;;;;;;;2.40;1.40;;;;;;;11.39;75.55;99540.28;5086096;28;20075;-68
2021/12/31 04:29:12;;;;;;;2.10;1.30;;;;;;;11.36;75.57;99538.66;5086357;28;20070;-69
2021/12/31 04:31:45;;;;;;;2.00;1.50;;;;;;;11.37;75.36;99544.81;5085977;28;20071;-68
2021/12/31 04:34:18;;;;;;;2.20;1.40;;;;;;;11.33;75.13;99551.25;5086189;28;20060;-69
2021/12/31 04:36:52;;;;;;;3.63;1.98;;;;;;;11.33;75.24;99543.28;5085824;28;20060;-69
2021/12/31 04:39:28;;;;;;;2.40;1.50;;;;;;;11.13;75.41;99496.63;5086187;28;20059;-69
2021/12/31 04:42:02;;;;;;;2.15;1.50;;;;;;;11.32;75.27;99533.63;5085828;28;20071;-69
2021/12/31 04:44:35;;;;;;;2.58;1.70;;;;;;;11.34;75.59;99535.25;5085725;28;20060;-68
2021/12/31 04:47:08;;;;;;;2.75;1.55;;;;;;;11.32;75.78;99528.31;5084400;28;20074;-69
2021/12/31 04:49:41;;;;;;;1.88;1.40;;;;;;;11.31;75.74;99531.91;5085734;28;20060;-68
2021/12/31 04:52:14;;;;;;;2.88;1.77;;;;;;;11.32;75.62;99533.63;5085712;28;20060;-68
2021/12/31 04:54:49;;;;;;;2.33;1.52;;;;;;;11.32;75.41;99549.53;5085663;28;20316;-69
2021/12/31 04:57:24;;;;;;;2.45;1.70;;;;;;;11.32;75.30;99545.09;5085850;28;20134;-69
2021/12/31 04:59:58;;;;;;;2.20;1.40;;;;;;;11.32;75.20;99542.44;5085855;28;20062;-69
2021/12/31 05:02:31;;;;;;;3.15;1.95;;;;;;;11.12;75.27;99518.78;5085830;28;20150;-68
2021/12/31 05:05:05;;;;;;;11.73;5.57;;;;;;;11.45;75.41;99555.88;5085537;28;20300;-68
2021/12/31 05:07:39;;;;;;;8.37;5.37;;;;;;;11.59;75.49;99565.72;5085784;28;20068;-68
2021/12/31 05:10:14;;;;;;;6.47;4.43;;;;;;;11.62;74.83;99568.22;5085480;28;20379;-68
2021/12/31 05:12:52;;;;;;;4.80;2.95;;;;;;;11.64;74.49;99561.88;5084680;28;20071;-68
2021/12/31 05:15:27;;;;;;;4.43;2.78;;;;;;;11.62;74.93;99568.22;5084555;28;20056;-68
2021/12/31 05:18:01;;;;;;;3.22;2.05;;;;;;;11.66;74.36;99565.28;5085640;28;20078;-68
2021/12/31 05:20:34;;;;;;;2.70;1.80;;;;;;;11.55;74.58;99568.56;5085376;28;20091;-69
2021/12/31 05:23:08;;;;;;;2.72;1.65;;;;;;;11.49;74.57;99557.41;5084649;28;20074;-69
2021/12/31 05:25:41;;;;;;;2.40;1.50;;;;;;;11.50;74.30;99572.41;5085418;28;20040;-68
2021/12/31 05:28:14;;;;;;;3.70;2.20;;;;;;;11.48;74.71;99574.28;5085738;28;20289;-68
2021/12/31 05:30:46;;;;;;;5.07;1.95;;;;;;;11.48;74.53;99577.78;5085333;28;20041;-68
2021/12/31 05:33:19;;;;;;;3.63;1.80;;;;;;;11.47;74.52;99576.09;5085467;28;20041;-68
2021/12/31 05:35:51;;;;;;;3.20;2.08;;;;;;;11.42;74.59;99572.81;5085218;28;20040;-68
2021/12/31 05:38:23;;;;;;;2.97;2.10;;;;;;;11.45;75.03;99574.44;5085689;28;20051;-68
2021/12/31 05:40:57;;;;;;;3.10;1.75;;;;;;;11.45;74.68;99571.81;5085521;28;20040;-68
2021/12/31 05:43:29;;;;;;;4.25;2.47;;;;;;;11.45;74.72;99566.50;5086013;28;20264;-68
2021/12/31 05:46:01;;;;;;;3.72;2.05;;;;;;;11.46;74.16;99581.47;5085624;28;20067;-68
2021/12/31 05:48:34;;;;;;;2.45;1.65;;;;;;;11.45;74.13;99577.97;5085843;28;20040;-68
2021/12/31 05:51:06;;;;;;;3.10;2.00;;;;;;;11.47;74.05;99585.84;5085841;28;20209;-68
2021/12/31 05:53:38;;;;;;;2.88;1.90;;;;;;;11.48;74.01;99580.44;5085976;28;20198;-68
2021/12/31 05:56:12;;;;;;;2.33;1.55;;;;;;;11.48;74.03;99582.25;5084930;28;20041;-68
2021/12/31 05:58:44;;;;;;;2.70;1.92;;;;;;;11.48;73.94;99582.25;5086093;28;20040;-68
2021/12/31 06:01:17;;;;;;;2.65;1.95;;;;;;;11.45;74.15;99580.63;5088925;28;20047;-68
2021/12/31 06:03:49;;;;;;;2.97;1.80;;;;;;;11.49;74.20;99589.28;5088943;28;20040;-68
2021/12/31 06:06:19;;;;;;;3.58;2.20;;;;;;;11.49;74.12;99590.13;5088808;28;20044;-68
2021/12/31 06:08:49;;;;;;;2.60;1.80;;;;;;;11.50;73.67;99588.31;5089049;28;20312;-68
2021/12/31 06:11:21;;;;;;;3.22;2.03;;;;;;;11.51;73.65;99600.66;5088735;28;20293;-68
2021/12/31 06:14:00;;;;;;;2.90;1.92;;;;;;;11.52;73.88;99597.91;5088272;28;20040;-68
2021/12/31 06:16:36;;;;;;;3.42;2.42;;;;;;;11.54;73.50;99587.22;5088767;28;20064;-68
2021/12/31 06:19:09;;;;;;;3.42;2.40;;;;;;;11.55;73.83;99594.25;5088581;28;20036;-68
2021/12/31 06:21:44;;;;;;;3.55;2.40;;;;;;;11.56;73.51;99594.16;5088257;28;20049;-68
2021/12/31 06:24:17;;;;;;;3.33;2.30;;;;;;;11.57;73.48;99608.28;5088774;28;20041;-68
2021/12/31 06:26:50;;;;;;;3.13;2.00;;;;;;;11.59;73.35;99593.13;5088976;28;20040;-68
2021/12/31 06:29:23;;;;;;;3.28;2.17;;;;;;;11.58;73.18;99602.03;5088832;28;20047;-69
2021/12/31 06:31:55;;;;;;;2.97;2.08;;;;;;;11.60;73.18;99612.56;5087608;28;20297;-69
2021/12/31 06:34:27;;;;;;;2.97;2.00;;;;;;;11.53;72.66;99602.28;5088300;28;20056;-69
2021/12/31 06:37:00;;;;;;;2.92;2.15;;;;;;;11.63;72.47;99620.34;5088147;28;20045;-69
2021/12/31 06:39:34;;;;;;;3.38;1.60;;;;;;;11.66;72.76;99623.69;5088540;28;20312;-68
2021/12/31 06:42:09;;;;;;;4.07;2.50;;;;;;;11.65;72.50;99615.81;5088201;28;20037;-69
2021/12/31 06:44:42;;;;;;;3.50;2.10;;;;;;;11.68;73.05;99618.31;5088073;28;20051;-68
2021/12/31 06:47:14;;;;;;;2.72;1.80;;;;;;;11.68;73.01;99627.13;5088034;28;20040;-68
2021/12/31 06:49:47;;;;;;;2.90;1.90;;;;;;;11.71;72.82;99626.97;5088040;28;20320;-69
2021/12/31 06:52:19;;;;;;;3.13;2.00;;;;;;;11.71;72.86;99626.97;5088201;28;20048;-68
2021/12/31 06:54:51;;;;;;;2.97;1.98;;;;;;;11.73;72.80;99624.22;5087938;28;20048;-68
2021/12/31 06:57:25;;;;;;;3.40;2.30;;;;;;;11.74;72.88;99623.28;5087694;28;20055;-69
2021/12/31 06:59:57;;;;;;;3.83;2.20;;;;;;;11.78;72.97;99630.13;5088158;28;20040;-69
2021/12/31 07:02:29;;;;;;;2.83;2.00;;;;;;;11.78;72.69;99628.34;5087795;28;20185;-69
2021/12/31 07:05:03;;;;;;;3.30;2.40;;;;;;;11.79;72.30;99626.53;5087249;28;20048;-71
2021/12/31 07:07:35;;;;;;;4.80;2.47;;;;;;;11.83;72.36;99628.06;5088010;28;20044;-69
2021/12/31 07:10:08;;;;;;;3.55;2.53;;;;;;;11.83;72.13;99626.28;5087307;28;20040;-69
2021/12/31 07:12:42;;;;;;;3.25;2.30;;;;;;;8.86;72.34;99135.41;5087649;28;20036;-69
2021/12/31 07:15:14;;;;;;;3.78;2.85;;;;;;;11.82;72.14;99648.47;5087811;28;20040;-68
2021/12/31 07:17:47;;;;;;;3.20;2.10;;;;;;;11.83;72.17;99639.56;5086631;28;20045;-68
2021/12/31 07:20:20;;;;;;;3.60;2.38;;;;;;;11.86;72.13;99649.16;5087271;28;20040;-69
2021/12/31 07:22:52;;;;;;;2.55;1.67;;;;;;;11.88;72.24;99652.56;5087369;28;20052;-68
2021/12/31 07:25:25;;;;;;;3.17;2.22;;;;;;;11.87;71.88;99654.38;5087249;28;20070;-68
2021/12/31 07:27:58;;;;;;;3.97;2.00;;;;;;;11.88;71.97;99663.19;5087602;28;20063;-68
2021/12/31 07:30:31;;;;;;;3.17;2.08;;;;;;;7.99;71.97;99005.16;5086264;28;20057;-68
2021/12/31 07:33:04;;;;;;;3.63;2.30;;;;;;;11.92;72.02;99669.19;5087437;28;20048;-69
2021/12/31 07:35:36;;;;;;;3.15;2.00;;;;;;;11.93;72.21;99669.09;5087024;28;20103;-69
2021/12/31 07:38:17;;;;;;;5.45;2.10;;;;;;;11.94;71.73;99675.28;5087310;28;20055;-69
2021/12/31 07:40:51;;;;;;;3.10;2.22;;;;;;;11.94;71.96;99677.94;5087271;28;20047;-69
2021/12/31 07:43:25;;;;;;;3.00;2.08;;;;;;;5.96;71.55;98671.69;5087237;28;20047;-69
2021/12/31 07:45:57;;;;;;;4.40;2.47;;;;;;;11.96;72.15;99684.88;5087002;28;20041;-69
2021/12/31 07:48:29;;;;;;;2.88;1.90;;;;;;;11.98;71.66;99684.78;5086883;28;20051;-69
2021/12/31 07:51:02;;;;;;;3.25;2.20;;;;;;;12.01;71.44;99687.31;5086756;28;20040;-68
2021/12/31 07:53:34;;;;;;;2.85;1.95;;;;;;;12.03;71.76;99685.44;5086904;28;20102;-69
2021/12/31 07:56:06;;;;;;;3.03;1.75;;;;;;;12.08;71.71;99691.34;5086713;28;20209;-68
2021/12/31 07:58:40;;;;;;;3.85;2.10;;;;;;;12.13;71.66;99690.13;5086859;28;20304;-69
2021/12/31 08:01:12;;;;;;;3.58;2.03;;;;;;;12.28;70.91;99691.09;5086587;28;20040;-69
2021/12/31 08:03:44;;;;;;;4.40;2.00;;;;;;;12.46;70.27;99691.84;5086609;28;20189;-68
2021/12/31 08:06:17;;;;;;;3.90;2.58;;;;;;;12.66;70.13;99683.56;5086819;28;20048;-69
2021/12/31 08:08:49;;;;;;;3.10;2.20;;;;;;;12.86;69.68;99678.88;5086408;28;20049;-69
2021/12/31 08:11:22;;;;;;;3.42;2.38;;;;;;;13.02;69.10;99680.53;5086387;28;20289;-69
2021/12/31 08:13:56;;;;;;;3.42;2.35;;;;;;;13.21;67.88;99664.31;5086307;28;20047;-68
2021/12/31 08:16:28;;;;;;;3.70;2.47;;;;;;;13.43;67.90;99666.56;5086390;28;20040;-69
2021/12/31 08:18:58;;;;;;;3.20;2.33;;;;;;;13.64;67.46;99667.88;5086436;28;20047;-69
2021/12/31 08:21:29;;;;;;;4.07;2.65;;;;;;;13.83;67.31;99670.22;5085425;28;20044;-69
2021/12/31 08:23:59;;;;;;;3.40;2.20;;;;;;;14.00;66.16;99677.16;5086067;28;20078;-69
2021/12/31 08:26:29;;;;;;;3.92;2.70;;;;;;;14.15;65.69;99668.16;5086453;28;20036;-69
2021/12/31 08:29:01;;;;;;;3.50;2.42;;;;;;;14.32;64.75;99673.25;5086205;28;20293;-69
2021/12/31 08:31:30;;;;;;;5.30;1.88;;;;;;;14.42;64.72;99663.69;5086171;28;20090;-69
2021/12/31 08:34:00;;;;;;;2.80;1.80;;;;;;;14.54;64.63;99674.50;5086027;28;20041;-69
2021/12/31 08:36:30;;;;;;;2.78;1.77;;;;;;;14.68;64.32;99672.69;5086013;28;20094;-69
2021/12/31 08:39:00;;;;;;;2.78;2.15;;;;;;;14.81;63.32;99666.53;5085867;28;20075;-69
2021/12/31 08:41:31;;;;;;;3.10;2.10;;;;;;;14.90;62.82;99668.56;5085154;28;20048;-69
2021/12/31 08:44:02;;;;;;;3.15;2.33;;;;;;;15.02;63.08;99668.59;5085939;28;20041;-69
2021/12/31 08:46:31;;;;;;;4.07;2.60;;;;;;;15.10;62.34;99661.88;5085515;28;20263;-69
2021/12/31 08:49:02;;;;;;;3.10;1.85;;;;;;;15.00;64.07;99661.66;5085597;28;20208;-69
2021/12/31 08:51:32;;;;;;;2.70;1.80;;;;;;;14.88;63.50;99662.47;5085631;28;20056;-69
2021/12/31 08:54:02;;;;;;;3.15;1.98;;;;;;;14.62;63.55;99653.56;5085564;28;20040;-69
2021/12/31 08:56:33;;;;;;;3.03;1.85;;;;;;;14.61;63.87;99642.06;5085291;28;20036;-69
2021/12/31 08:59:04;;;;;;;3.17;1.90;;;;;;;14.65;64.81;99650.69;5085635;28;20086;-69
2021/12/31 09:01:33;;;;;;;2.78;1.90;;;;;;;14.56;65.14;99659.25;5085657;28;20204;-69
2021/12/31 09:04:04;;;;;;;2.53;1.70;;;;;;;14.45;63.97;99660.81;5085550;28;20082;-69
2021/12/31 09:06:33;;;;;;;2.40;1.63;;;;;;;14.16;63.70;99615.72;5085630;28;20036;-69
2021/12/31 09:09:04;;;;;;;2.45;1.63;;;;;;;12.78;62.79;99398.28;5084848;28;20044;-69
2021/12/31 09:11:34;;;;;;;2.22;1.50;;;;;;;14.29;64.24;99643.28;5085315;28;20040;-69
2021/12/31 09:14:06;;;;;;;2.13;1.55;;;;;;;14.29;63.71;99649.47;5085216;28;20040;-69
2021/12/31 09:16:34;;;;;;;2.75;1.73;;;;;;;14.39;63.31;99649.72;5085111;28;20239;-69
2021/12/31 09:19:04;;;;;;;2.67;1.80;;;;;;;14.58;61.82;99644.88;5085160;28;20078;-69
2021/12/31 09:21:35;;;;;;;3.97;2.17;;;;;;;14.80;61.80;99647.00;5084345;28;20090;-69
2021/12/31 09:24:06;;;;;;;2.70;1.98;;;;;;;15.13;62.30;99641.16;5083854;28;20095;-69
2021/12/31 09:26:36;;;;;;;3.05;1.90;;;;;;;15.32;61.54;99638.06;5085507;28;20309;-69
2021/12/31 09:29:07;;;;;;;2.53;1.40;;;;;;;15.54;60.18;99635.59;5084925;28;20048;-69
2021/12/31 09:31:36;;;;;;;2.20;1.52;;;;;;;15.67;60.69;99640.94;5084966;28;20037;-69
2021/12/31 09:34:06;;;;;;;2.40;1.50;;;;;;;15.81;59.20;99643.47;5084599;28;20044;-69
2021/12/31 09:36:36;;;;;;;1.85;1.30;;;;;;;16.01;58.89;99642.03;5084831;28;20041;-69
2021/12/31 09:39:06;;;;;;;1.98;1.40;;;;;;;16.17;58.49;99631.91;5085133;28;20292;-69
2021/12/31 09:41:37;;;;;;;2.50;1.60;;;;;;;16.40;58.34;99632.03;5084768;28;20041;-69
2021/12/31 09:44:10;;;;;;;3.15;1.63;;;;;;;16.58;56.65;99647.53;5084639;28;20086;-69
2021/12/31 09:46:42;;;;;;;1.98;1.20;;;;;;;16.65;56.66;99632.75;5084639;28;20048;-69
2021/12/31 09:49:12;;;;;;;3.05;1.85;;;;;;;16.87;55.17;99637.34;5084613;28;20050;-70
2021/12/31 09:51:43;;;;;;;2.35;1.50;;;;;;;16.78;56.24;99639.88;5084827;28;20229;-69
2021/12/31 09:54:13;;;;;;;2.30;1.52;;;;;;;16.73;55.19;99634.88;5084809;28;20040;-69
2021/12/31 09:56:43;;;;;;;2.00;1.20;;;;;;;16.77;55.86;99646.19;5084505;28;20167;-69
2021/12/31 09:59:15;;;;;;;1.67;1.23;;;;;;;16.23;54.97;99561.94;5084572;28;20040;-69
2021/12/31 10:01:47;;;;;;;1.40;1.00;;;;;;;16.78;50.56;99630.00;5084899;28;20300;-69
2021/12/31 10:04:22;;;;;;;1.33;1.10;;;;;;;16.83;54.11;99614.44;5084509;28;20044;-69
2021/12/31 10:07:11;;;;;;;1.77;1.30;;;;;;;16.94;50.30;99624.34;5084575;28;20041;-69
2021/12/31 10:09:43;;;;;;;1.52;1.15;;;;;;;16.97;53.26;99619.59;5084674;28;20053;-69
2021/12/31 10:12:15;;;;;;;2.30;1.20;;;;;;;17.09;51.63;99615.13;5084043;28;20040;-70
2021/12/31 10:14:58;;;;;;;1.58;1.00;;;;;;;17.34;49.43;99607.88;5084512;28;20048;-69
2021/12/31 10:17:35;;;;;;;3.30;1.55;;;;;;;17.54;49.82;99607.13;5084815;28;20044;-69
2021/12/31 10:20:08;;;;;;;1.80;1.05;;;;;;;17.65;51.34;99620.56;5084239;28;20067;-70
2021/12/31 10:22:40;;;;;;;1.25;1.05;;;;;;;17.68;51.19;99611.41;5083835;28;20106;-69
2021/12/31 10:25:18;;;;;;;1.02;0.93;;;;;;;17.56;48.56;99603.34;5084409;28;20102;-69
2021/12/31 10:27:51;;;;;;;1.17;1.08;;;;;;;17.40;51.87;99565.38;5083874;28;20044;-69
2021/12/31 10:30:26;;;;;;;1.13;1.00;;;;;;;17.67;49.65;99594.47;5084690;28;20098;-68
2021/12/31 10:32:59;;;;;;;2.08;1.10;;;;;;;17.82;51.08;99616.53;5084361;28;20351;-69
2021/12/31 10:35:39;;;;;;;1.45;0.93;;;;;;;17.78;46.52;99615.06;5084299;28;20041;-70
2021/12/31 10:38:12;;;;;;;1.35;0.98;;;;;;;17.82;50.08;99611.16;5084559;28;20090;-69
2021/12/31 10:40:47;;;;;;;1.25;1.00;;;;;;;17.94;48.71;99612.84;5083414;28;20044;-70
2021/12/31 10:43:21;;;;;;;1.70;1.00;;;;;;;17.13;50.53;99473.78;5084477;28;20102;-69
2021/12/31 10:46:03;;;;;;;2.05;1.35;;;;;;;18.05;46.64;99615.50;5086027;28;20062;-69
2021/12/31 10:48:41;;;;;;;1.50;1.00;;;;;;;18.04;47.34;99608.44;5087791;28;20240;-69
2021/12/31 10:51:15;;;;;;;1.70;1.23;;;;;;;17.84;48.09;99571.66;5087878;28;20086;-69
2021/12/31 10:53:51;;;;;;;1.90;1.20;;;;;;;18.06;51.00;99595.75;5087327;28;20044;-70
2021/12/31 10:56:39;;;;;;;4.15;1.90;;;;;;;18.10;50.58;99593.66;5087541;28;20041;-69
2021/12/31 10:59:11;;;;;;;2.97;1.70;;;;;;;18.25;51.09;99589.72;5087730;28;20044;-72
2021/12/31 11:01:43;;;;;;;2.40;1.60;;;;;;;18.33;49.81;99594.44;5087834;28;20037;-73
2021/12/31 11:04:12;;;;;;;8.18;2.47;;;;;;;18.43;49.86;99592.69;5087980;28;20037;-72
2021/12/31 11:06:42;;;;;;;3.13;1.25;;;;;;;18.54;51.55;99587.31;5088118;28;20063;-72
2021/12/31 11:09:13;;;;;;;2.42;1.60;;;;;;;18.53;51.69;99583.78;5088156;28;20059;-72
2021/12/31 11:11:43;;;;;;;2.60;1.40;;;;;;;18.55;50.80;99592.53;5087671;28;20103;-72
2021/12/31 11:14:15;;;;;;;2.72;1.55;;;;;;;18.63;51.01;99586.53;5087472;28;20040;-71
2021/12/31 11:16:44;;;;;;;2.38;1.48;;;;;;;18.73;50.88;99567.81;5086778;28;20052;-71
2021/12/31 11:19:13;;;;;;;2.28;1.50;;;;;;;18.76;51.70;99562.16;5087664;28;20044;-71
2021/12/31 11:21:44;;;;;;;2.38;1.40;;;;;;;18.94;50.19;99575.84;5087155;28;20130;-70
2021/12/31 11:24:36;;;;;;;1.60;1.10;;;;;;;18.74;47.51;99550.72;5087196;28;20245;-70
2021/12/31 11:27:31;;;;;;;3.08;1.65;;;;;;;18.73;47.45;99559.75;5086389;28;20044;-70
2021/12/31 11:30:04;;;;;;;;;;;;;;;18.64;47.61;99563.22;5087702;28;20040;-70
2021/12/31 11:33:00;;;;;;;2.67;1.75;;;;;;;18.63;48.34;99561.50;5086849;28;19920;-69
2021/12/31 11:35:39;;;;;;;3.17;1.55;;;;;;;18.39;49.70;99554.53;5086832;28;20089;-70
2021/12/31 11:38:16;;;;;;;1.80;1.15;;;;;;;18.51;50.08;99544.59;5086967;28;20044;-69
2021/12/31 11:40:50;;;;;;;2.67;1.65;;;;;;;18.60;51.03;99549.22;5086709;28;20150;-69
2021/12/31 11:43:25;;;;;;;3.30;2.25;;;;;;;18.60;50.31;99533.09;5086567;28;20041;-69
2021/12/31 11:46:29;;;;;;;6.35;2.22;;;;;;;18.56;48.31;99532.50;5086627;28;20090;-70
2021/12/31 11:49:09;;;;;;;2.83;1.83;;;;;;;18.36;49.52;99543.19;5086480;28;20231;-70
2021/12/31 11:51:58;;;;;;;2.70;1.50;;;;;;;18.46;48.17;99528.88;5086427;28;20094;-69
2021/12/31 11:54:30;;;;;;;2.47;1.55;;;;;;;18.54;50.53;99529.09;5085843;28;20048;-69
2021/12/31 11:57:11;;;;;;;3.22;1.85;;;;;;;18.69;48.78;99518.03;5086616;28;20090;-68
2021/12/31 11:59:46;;;;;;;4.82;3.00;;;;;;;18.64;49.75;99518.44;5086382;28;20098;-68
2021/12/31 12:02:21;;;;;;;4.82;2.20;;;;;;;18.58;50.02;99511.75;5086347;28;20082;-69
2021/12/31 12:05:14;;;;;;;3.47;2.15;;;;;;;18.35;47.67;99480.63;5085628;28;20044;-69